Time;durP1;ratioP1;P1;durP2;ratioP2;P2;SDS_P1;SDS_P2;PMS_P1;PMS_P2;Temp;Humidity;BMP_temperature;BMP_pressure;BME280_temperature;BME280_humidity;BME280_pressure;Samples;Min_cycle;Max_cycle;Signal;HPM_P1;HPM_P2
2022/05/16 09:21:06;;;;;;;7.22;3.60;;;21.60;96.70;;;;;;5058989;27;20539;-75
2022/05/16 09:23:53;;;;;;;3.80;3.33;;;21.50;97.10;;;;;;5060359;28;20201;-76
2022/05/16 09:26:42;;;;;;;5.30;3.42;;;21.50;96.90;;;;;;5057084;28;20208;-79
2022/05/16 09:29:18;;;;;;;4.72;3.20;;;21.50;97.40;;;;;;5065582;28;20216;-78
2022/05/16 09:31:49;;;;;;;6.55;3.60;;;21.50;97.10;;;;;;5065996;28;20193;-78
2022/05/16 09:34:17;;;;;;;5.40;3.60;;;21.40;97.00;;;;;;5066665;28;20194;-79
2022/05/16 09:36:57;;;;;;;6.15;3.22;;;21.40;97.10;;;;;;5063314;28;20221;-78
2022/05/16 09:39:31;;;;;;;5.95;3.58;;;21.40;97.20;;;;;;5060781;28;20204;-76
2022/05/16 09:42:04;;;;;;;6.15;3.53;;;21.30;97.40;;;;;;5061777;28;20545;-76
2022/05/16 09:44:34;;;;;;;6.38;3.60;;;21.40;97.40;;;;;;5057181;28;20202;-75
2022/05/16 09:47:26;;;;;;;6.03;3.90;;;21.40;97.70;;;;;;5054135;28;20768;-77
2022/05/16 09:50:15;;;;;;;7.00;3.35;;;21.30;97.80;;;;;;5062669;28;20307;-75
2022/05/16 09:52:52;;;;;;;7.05;4.00;;;21.20;98.60;;;;;;5078514;28;20213;-76
2022/05/16 09:55:30;;;;;;;7.07;3.70;;;21.30;98.10;;;;;;5057947;28;20213;-77
2022/05/16 09:58:00;;;;;;;5.20;3.38;;;21.40;98.20;;;;;;5061986;28;20194;-76
2022/05/16 10:00:41;;;;;;;5.63;3.50;;;21.50;98.60;;;;;;5064498;28;20220;-76
2022/05/16 10:03:24;;;;;;;4.60;3.33;;;21.60;98.20;;;;;;5060475;28;20194;-77
2022/05/16 10:05:53;;;;;;;3.75;3.20;;;21.60;98.10;;;;;;5058671;28;20202;-77
2022/05/16 10:08:30;;;;;;;4.13;3.10;;;21.70;97.40;;;;;;5052536;28;20202;-77
2022/05/16 10:11:00;;;;;;;4.78;2.80;;;21.80;97.80;;;;;;5060156;28;20705;-77
2022/05/16 10:13:27;;;;;;;5.38;3.25;;;21.90;98.10;;;;;;5057194;28;20577;-78
2022/05/16 10:15:57;;;;;;;5.22;3.35;;;22.00;97.90;;;;;;5061409;28;20198;-78
2022/05/16 10:18:29;;;;;;;5.88;3.42;;;22.20;98.00;;;;;;5058143;28;20202;-78
2022/05/16 10:21:00;;;;;;;5.63;3.72;;;22.40;97.50;;;;;;5043908;28;20225;-77
2022/05/16 10:23:34;;;;;;;3.95;3.33;;;22.50;96.90;;;;;;5043687;28;20200;-77
2022/05/16 10:26:06;;;;;;;7.97;3.47;;;22.60;96.70;;;;;;5038079;28;20197;-77
2022/05/16 10:28:37;;;;;;;6.95;3.08;;;22.60;96.00;;;;;;5039151;28;20213;-78
2022/05/16 10:34:07;;;;;;;4.07;3.30;;;23.30;96.20;;;;;;5003535;28;20195;-78
2022/05/16 10:36:38;;;;;;;4.20;3.30;;;23.30;95.30;;;;;;5024953;28;20203;-78
2022/05/16 10:39:13;;;;;;;5.32;3.30;;;23.30;95.80;;;;;;5027471;28;20210;-77
2022/05/16 10:41:50;;;;;;;4.72;2.80;;;23.30;97.10;;;;;;5025129;28;20203;-78
2022/05/16 10:44:24;;;;;;;6.03;3.20;;;23.20;95.60;;;;;;5026482;28;20206;-78
2022/05/16 10:47:02;;;;;;;4.63;3.20;;;23.50;95.50;;;;;;5029080;28;20195;-78
2022/05/16 10:49:36;;;;;;;5.68;3.17;;;23.50;96.20;;;;;;5035969;28;20215;-78
2022/05/16 10:52:22;;;;;;;4.18;3.00;;;23.60;96.20;;;;;;5027965;28;20198;-78
2022/05/16 10:54:52;;;;;;;6.88;3.30;;;23.70;95.00;;;;;;5040172;28;20210;-78
2022/05/16 10:57:37;;;;;;;4.50;3.03;;;23.90;96.00;;;;;;5025468;28;20565;-78
2022/05/16 11:00:10;;;;;;;5.18;3.17;;;24.10;95.10;;;;;;5019867;28;20226;-78
2022/05/16 11:03:09;;;;;;;4.38;2.83;;;24.20;93.80;;;;;;5025775;28;20195;-78
2022/05/16 11:05:42;;;;;;;5.80;3.35;;;24.20;94.10;;;;;;5020936;28;20199;-78
2022/05/16 11:08:20;;;;;;;4.70;2.97;;;24.30;93.60;;;;;;5040421;28;20206;-78
2022/05/16 11:11:01;;;;;;;3.72;2.95;;;24.30;93.30;;;;;;5021614;28;20218;-78
2022/05/16 11:13:36;;;;;;;5.03;3.13;;;24.40;92.90;;;;;;5017913;28;20207;-78
2022/05/16 11:16:11;;;;;;;5.85;3.40;;;24.30;92.60;;;;;;5024944;28;20202;-78
2022/05/16 11:18:45;;;;;;;5.35;2.92;;;24.40;92.00;;;;;;5025023;28;20226;-78
2022/05/16 11:21:28;;;;;;;3.38;3.03;;;24.60;92.60;;;;;;5028235;28;20665;-78
2022/05/16 11:24:05;;;;;;;4.25;3.08;;;24.80;92.90;;;;;;5029749;28;20203;-78
2022/05/16 11:26:43;;;;;;;4.10;3.13;;;24.70;92.20;;;;;;5024989;28;20221;-78
2022/05/16 11:29:17;;;;;;;3.85;2.92;;;24.70;92.20;;;;;;5020023;28;20207;-78
2022/05/16 11:32:01;;;;;;;4.50;3.30;;;24.70;92.20;;;;;;5021924;28;20202;-78
2022/05/16 11:34:39;;;;;;;4.68;3.03;;;24.50;93.30;;;;;;5027662;28;20670;-78
2022/05/16 11:37:18;;;;;;;6.35;3.72;;;24.20;93.00;;;;;;5048175;28;20210;-78
2022/05/16 11:39:54;;;;;;;5.30;3.10;;;24.40;92.70;;;;;;5027588;28;20219;-78
2022/05/16 11:42:33;;;;;;;5.40;3.50;;;24.50;92.50;;;;;;5022854;28;20206;-78
2022/05/16 11:45:13;;;;;;;8.10;3.70;;;24.40;92.70;;;;;;5029635;28;20595;-78
2022/05/16 11:47:47;;;;;;;5.07;3.05;;;24.60;92.60;;;;;;5029892;28;20203;-78
2022/05/16 11:50:51;;;;;;;5.53;3.45;;;24.90;91.80;;;;;;5024692;28;20227;-79
2022/05/16 11:53:47;;;;;;;5.60;3.15;;;25.10;91.80;;;;;;5023906;28;20206;-79
2022/05/16 12:02:18;;;;;;;4.32;3.20;;;25.20;92.00;;;;;;5027632;28;20203;-79
2022/05/16 12:04:49;;;;;;;5.40;3.10;;;25.10;92.00;;;;;;5030233;28;20211;-79
2022/05/16 12:07:26;;;;;;;5.35;3.45;;;25.20;91.70;;;;;;5028786;28;20302;-79
2022/05/16 12:09:58;;;;;;;4.40;3.55;;;25.10;91.90;;;;;;5022829;28;20242;-79
2022/05/16 12:12:32;;;;;;;7.22;3.55;;;25.50;92.00;;;;;;5020560;28;20204;-79
2022/05/16 12:15:21;;;;;;;4.53;3.28;;;25.90;91.40;;;;;;5027239;28;20203;-79
2022/05/16 12:17:51;;;;;;;6.05;3.15;;;25.80;90.50;;;;;;5027034;28;20668;-79
2022/05/16 12:20:38;;;;;;;5.50;2.90;;;26.00;89.30;;;;;;5024606;28;20233;-79
2022/05/16 12:23:09;;;;;;;4.43;2.50;;;25.90;90.20;;;;;;5027459;28;20564;-79
2022/05/16 12:25:39;;;;;;;3.78;2.83;;;25.90;90.00;;;;;;5029321;28;20187;-79
2022/05/16 12:28:29;;;;;;;7.15;3.00;;;26.50;87.70;;;;;;5028980;28;20199;-80
2022/05/16 12:31:00;;;;;;;6.32;3.22;;;27.00;84.40;;;;;;5030411;28;20731;-80
2022/05/16 12:33:50;;;;;;;4.80;3.20;;;27.20;84.60;;;;;;5029216;28;20226;-80
2022/05/16 12:36:20;;;;;;;3.65;3.17;;;27.00;85.50;;;;;;5040890;28;20214;-80
2022/05/16 12:38:53;;;;;;;4.03;3.25;;;26.90;83.30;;;;;;5031896;28;20695;-80
2022/05/16 12:41:51;;;;;;;4.03;3.20;;;27.00;83.60;;;;;;5030608;28;20223;-79
2022/05/16 12:44:43;;;;;;;5.75;3.17;;;26.70;86.20;;;;;;5031146;28;20194;-80
2022/05/16 12:47:53;;;;;;;4.90;2.95;;;26.30;84.20;;;;;;5031752;28;20195;-80
2022/05/16 12:50:59;;;;;;;6.72;3.10;;;26.00;86.10;;;;;;5027862;28;20223;-80
2022/05/16 12:54:03;;;;;;;5.25;3.22;;;26.00;87.10;;;;;;5013819;28;20669;-77
2022/05/16 12:56:35;;;;;;;5.28;3.30;;;25.90;86.70;;;;;;5028508;28;20595;-77
2022/05/16 12:59:11;;;;;;;3.88;2.90;;;25.80;87.00;;;;;;5024923;28;20195;-77
2022/05/16 13:01:44;;;;;;;8.50;3.40;;;25.80;87.90;;;;;;5022987;28;20222;-77
2022/05/16 13:04:25;;;;;;;5.03;3.15;;;25.70;90.90;;;;;;5023524;28;20298;-77
2022/05/16 13:07:03;;;;;;;4.95;3.15;;;25.70;90.20;;;;;;5039270;28;20711;-77
2022/05/16 13:09:43;;;;;;;6.57;3.40;;;25.40;89.80;;;;;;5026302;28;20198;-77
2022/05/16 13:12:36;;;;;;;5.68;3.67;;;25.30;91.30;;;;;;5021011;28;20222;-77
2022/05/16 13:15:09;;;;;;;8.10;3.97;;;24.80;94.40;;;;;;5018718;28;20578;-77
2022/05/16 13:17:40;;;;;;;8.27;3.92;;;24.50;95.90;;;;;;5026869;28;20209;-77
2022/05/16 13:20:13;;;;;;;9.52;5.10;;;24.20;97.50;;;;;;5027225;28;20226;-77
2022/05/16 13:22:43;;;;;;;9.15;4.90;;;23.90;99.90;;;;;;5023666;28;20673;-76
2022/05/16 13:25:11;;;;;;;7.32;5.00;;;23.50;99.90;;;;;;5024603;28;20199;-77
2022/05/16 13:30:39;;;;;;;12.18;5.03;;;22.40;99.90;;;;;;5020146;28;20215;-79
2022/05/16 13:33:25;;;;;;;7.50;5.07;;;22.30;99.90;;;;;;5029669;28;20199;-78
2022/05/16 13:36:12;;;;;;;6.72;4.55;;;22.30;99.90;;;;;;5033132;28;20532;-78
2022/05/16 13:38:43;;;;;;;4.53;4.13;;;22.30;99.90;;;;;;5025924;28;20201;-78
2022/05/16 13:41:13;;;;;;;5.97;4.60;;;22.20;99.90;;;;;;5026701;28;20214;-81
2022/05/16 13:43:41;;;;;;;6.55;4.70;;;22.20;99.90;;;;;;5028866;28;20210;-81
2022/05/16 13:46:13;;;;;;;6.88;5.07;;;22.20;99.90;;;;;;5032753;28;20199;-81
2022/05/16 13:48:43;;;;;;;6.70;5.03;;;22.20;99.90;;;;;;5044237;28;20215;-81
2022/05/16 13:51:16;;;;;;;5.60;4.70;;;22.30;99.90;;;;;;5029639;28;20215;-81
2022/05/16 13:53:43;;;;;;;7.55;5.25;;;22.40;99.90;;;;;;5027895;28;20207;-81
2022/05/16 13:56:11;;;;;;;8.15;5.10;;;22.30;99.90;;;;;;5029069;28;20206;-81
2022/05/16 13:58:41;;;;;;;5.38;4.55;;;22.30;99.90;;;;;;5023285;28;20206;-81
2022/05/16 14:01:17;;;;;;;7.45;5.00;;;22.30;99.90;;;;;;5029149;28;20211;-81
2022/05/16 14:03:55;;;;;;;7.53;5.05;;;22.20;99.90;;;;;;5022133;28;20211;-81
2022/05/16 14:06:39;;;;;;;5.97;5.10;;;22.00;99.90;;;;;;5030613;28;20195;-81
2022/05/16 14:09:12;;;;;;;5.70;4.53;;;21.90;99.90;;;;;;5031234;28;20214;-81
2022/05/16 14:11:40;;;;;;;8.25;5.38;;;21.80;99.90;;;;;;5025947;28;20247;-81
2022/05/16 14:14:16;;;;;;;7.82;4.72;;;21.60;99.90;;;;;;5028940;28;20199;-81
2022/05/16 14:16:50;;;;;;;8.57;5.05;;;21.40;99.90;;;;;;5047303;28;20498;-81
2022/05/16 14:19:32;;;;;;;6.40;5.25;;;21.00;99.90;;;;;;5026085;28;20565;-81
2022/05/16 14:22:12;;;;;;;7.75;4.60;;;20.80;99.90;;;;;;5027683;28;20664;-81
2022/05/16 14:24:49;;;;;;;11.65;5.57;;;20.80;99.90;;;;;;5024025;28;20687;-80
2022/05/16 14:27:28;;;;;;;9.32;5.75;;;20.70;99.90;;;;;;5027636;28;20203;-80
2022/05/16 14:30:01;;;;;;;6.68;5.95;;;20.80;99.90;;;;;;5026306;28;20215;-80
2022/05/16 14:32:35;;;;;;;10.10;6.47;;;20.70;99.90;;;;;;5034484;28;20529;-81
2022/05/16 14:35:16;;;;;;;10.07;7.65;;;20.60;99.90;;;;;;5034034;28;20195;-81
2022/05/16 14:37:45;;;;;;;9.60;6.82;;;20.40;99.90;;;;;;5033610;28;20203;-81
2022/05/16 14:40:16;;;;;;;10.50;7.43;;;20.30;99.90;;;;;;5029531;28;20226;-81
2022/05/16 14:42:45;;;;;;;12.18;7.63;;;20.00;99.90;;;;;;5032475;28;20198;-80
2022/05/16 14:46:42;;;;;;;12.27;9.00;;;19.70;99.90;;;;;;5030476;28;20203;-80
2022/05/16 14:48:12;;;;;;;11.77;8.93;;;19.20;99.90;;;;;;5028931;28;20203;-80
2022/05/16 14:50:43;;;;;;;12.93;8.13;;;19.30;99.90;;;;;;5019808;28;20226;-80
2022/05/16 14:53:17;;;;;;;10.88;7.47;;;19.40;99.90;;;;;;5030825;28;20285;-80
2022/05/16 14:55:47;;;;;;;11.70;7.53;;;19.60;99.90;;;;;;5032303;28;20206;-80
2022/05/16 14:58:32;;;;;;;10.77;6.80;;;19.60;99.90;;;;;;5029149;28;20195;-81
2022/05/16 15:06:31;;;;;;;9.30;5.80;;;19.30;99.90;;;;;;5029980;28;20203;-80
2022/05/16 15:09:05;;;;;;;9.32;6.43;;;19.10;99.90;;;;;;5030378;28;20206;-81
2022/05/16 15:11:37;;;;;;;8.25;5.53;;;18.90;99.90;;;;;;5031275;28;20219;-80
2022/05/16 15:14:05;;;;;;;5.88;5.22;;;18.90;99.90;;;;;;5029622;28;20199;-80
2022/05/16 15:16:39;;;;;;;5.32;4.70;;;18.90;99.90;;;;;;5027794;28;20204;-79
2022/05/16 15:19:13;;;;;;;7.70;4.88;;;18.70;99.90;;;;;;5033091;28;20198;-79
2022/05/16 15:21:42;;;;;;;7.05;5.10;;;18.60;99.90;;;;;;5021940;28;20227;-77
2022/05/16 15:24:17;;;;;;;7.75;4.07;;;18.50;99.90;;;;;;5029868;28;20522;-77
2022/05/16 15:26:45;;;;;;;6.47;3.88;;;18.30;99.90;;;;;;5030265;28;20195;-77
2022/05/16 15:29:12;;;;;;;5.68;3.88;;;18.20;99.90;;;;;;5032451;28;20218;-77
2022/05/16 15:31:53;;;;;;;7.40;3.85;;;18.40;99.90;;;;;;5031428;28;20223;-77
2022/05/16 15:34:31;;;;;;;6.78;4.10;;;18.40;99.90;;;;;;5031871;28;20221;-77
2022/05/16 15:36:59;;;;;;;5.35;4.60;;;18.20;99.90;;;;;;5031124;28;20199;-77
2022/05/16 15:39:30;;;;;;;7.55;4.35;;;18.40;99.90;;;;;;5029997;28;20207;-77
2022/05/16 15:42:01;;;;;;;7.88;4.75;;;18.40;99.90;;;;;;5046041;28;20199;-77
2022/05/16 15:44:28;;;;;;;7.63;4.55;;;18.20;99.90;;;;;;5030696;28;20210;-77
2022/05/16 15:47:08;;;;;;;8.98;4.43;;;18.20;99.90;;;;;;5022354;28;20195;-76
2022/05/16 15:49:36;;;;;;;8.38;4.70;;;18.30;99.90;;;;;;5023810;28;20227;-76
2022/05/16 15:52:07;;;;;;;7.97;5.40;;;18.40;99.90;;;;;;5021997;28;20219;-76
2022/05/16 15:54:53;;;;;;;8.30;6.13;;;18.50;99.90;;;;;;5016499;28;20199;-77
2022/05/16 15:57:23;;;;;;;11.02;6.95;;;18.50;99.90;;;;;;5030035;28;20210;-79
2022/05/16 15:59:50;;;;;;;10.35;7.05;;;18.50;99.90;;;;;;5030428;28;20227;-79
2022/05/16 16:02:20;;;;;;;13.10;7.75;;;18.60;99.90;;;;;;5027608;28;20206;-79
2022/05/16 16:10:25;;;;;;;11.43;9.68;;;18.80;99.90;;;;;;5023736;28;20244;-80
2022/05/16 16:12:52;;;;;;;10.40;9.30;;;18.80;99.90;;;;;;5022916;28;20597;-80
2022/05/16 16:15:20;;;;;;;11.90;10.68;;;18.90;99.90;;;;;;5023025;28;20199;-80
2022/05/16 16:17:47;;;;;;;15.45;12.02;;;19.10;99.90;;;;;;5024144;28;20199;-79
2022/05/16 16:20:14;;;;;;;14.80;13.23;;;19.00;99.90;;;;;;5032047;28;20233;-79
2022/05/16 16:22:47;;;;;;;14.40;12.65;;;19.20;99.90;;;;;;5029815;28;20206;-79
2022/05/16 16:25:18;;;;;;;14.52;12.63;;;19.20;99.90;;;;;;5025871;28;20203;-79
2022/05/16 16:27:47;;;;;;;15.52;13.98;;;19.40;99.90;;;;;;5028614;28;20206;-79
2022/05/16 16:30:16;;;;;;;14.95;13.45;;;19.40;99.90;;;;;;5030876;28;20237;-79
2022/05/16 16:32:43;;;;;;;15.30;13.75;;;19.40;99.90;;;;;;5028287;28;20306;-79
2022/05/16 16:35:12;;;;;;;15.25;13.57;;;19.40;99.90;;;;;;5034688;28;20199;-81
2022/05/16 16:37:39;;;;;;;14.15;12.70;;;19.40;99.90;;;;;;5025517;28;20558;-80
2022/05/16 16:40:09;;;;;;;13.90;12.48;;;19.40;99.90;;;;;;5023864;28;20230;-80
2022/05/16 16:42:40;;;;;;;15.25;13.75;;;19.50;99.90;;;;;;5026416;28;20199;-80
2022/05/16 16:45:13;;;;;;;16.27;14.32;;;19.50;99.90;;;;;;5028598;28;20206;-81
2022/05/16 16:47:50;;;;;;;17.25;15.02;;;19.30;99.90;;;;;;5030721;28;20191;-80
2022/05/16 16:50:19;;;;;;;15.32;13.82;;;19.50;99.90;;;;;;5029981;28;20234;-80
2022/05/16 16:58:33;;;;;;;19.77;17.60;;;19.30;99.90;;;;;;5028019;28;20195;-80
2022/05/16 17:01:02;;;;;;;18.08;16.20;;;19.30;99.90;;;;;;5039448;28;20226;-80
2022/05/16 17:03:30;;;;;;;18.45;16.67;;;19.40;99.90;;;;;;5024772;28;20214;-79
2022/05/16 17:06:10;;;;;;;21.25;17.77;;;19.40;99.90;;;;;;5029881;28;20206;-79
2022/05/16 17:08:38;;;;;;;17.52;15.75;;;19.40;99.90;;;;;;5026269;28;20204;-79
2022/05/16 17:11:07;;;;;;;17.80;15.27;;;19.50;99.90;;;;;;5031866;28;20219;-79
2022/05/16 17:13:38;;;;;;;18.02;16.25;;;19.60;99.90;;;;;;5030004;28;20211;-79
2022/05/16 17:16:09;;;;;;;19.08;17.08;;;19.80;99.90;;;;;;5016754;28;20198;-79
2022/05/16 17:18:37;;;;;;;20.23;18.17;;;19.90;99.90;;;;;;5017355;28;20214;-79
2022/05/16 17:21:05;;;;;;;21.73;18.73;;;19.90;99.90;;;;;;5027968;28;20222;-79
2022/05/16 17:23:34;;;;;;;19.55;17.48;;;19.90;99.90;;;;;;5024453;28;20188;-77
2022/05/16 17:26:01;;;;;;;19.20;17.30;;;20.00;99.90;;;;;;5024479;28;20214;-77
2022/05/16 17:28:29;;;;;;;22.55;20.25;;;20.00;99.90;;;;;;5024186;28;20556;-77
2022/05/16 17:31:01;;;;;;;23.95;21.42;;;20.00;99.90;;;;;;5029972;28;20239;-80
2022/05/16 17:33:31;;;;;;;25.23;22.58;;;19.90;99.90;;;;;;5031816;28;20226;-80
2022/05/16 17:35:58;;;;;;;25.80;23.08;;;19.80;99.90;;;;;;5028528;28;20583;-77
2022/05/16 17:38:27;;;;;;;25.92;23.13;;;19.50;99.90;;;;;;5023989;28;20222;-77
2022/05/16 17:40:55;;;;;;;25.73;22.75;;;19.30;99.90;;;;;;5023837;28;20227;-77
2022/05/16 17:43:22;;;;;;;23.88;21.40;;;19.30;99.90;;;;;;5028506;28;20198;-77
2022/05/16 17:45:50;;;;;;;23.13;20.70;;;19.20;99.90;;;;;;5029004;28;20206;-77
2022/05/16 17:48:17;;;;;;;21.55;19.50;;;19.30;99.90;;;;;;5030099;28;20215;-77
2022/05/16 17:50:48;;;;;;;23.52;19.08;;;19.40;99.90;;;;;;5028704;28;20208;-77
2022/05/16 17:53:17;;;;;;;21.85;18.25;;;19.70;99.90;;;;;;5029485;28;20214;-77
2022/05/16 17:55:45;;;;;;;15.52;14.10;;;19.70;99.90;;;;;;5031586;28;20214;-77
2022/05/16 17:58:19;;;;;;;15.45;13.25;;;19.80;99.90;;;;;;5029019;28;20218;-77
2022/05/16 18:00:46;;;;;;;13.93;12.43;;;19.90;99.90;;;;;;5030419;28;20225;-77
2022/05/16 18:03:14;;;;;;;13.88;12.40;;;20.00;99.90;;;;;;5029727;28;20191;-77
2022/05/16 18:05:41;;;;;;;14.68;13.20;;;20.10;99.90;;;;;;5033881;28;20187;-77
2022/05/16 18:08:14;;;;;;;14.02;12.82;;;20.00;99.90;;;;;;5032797;28;20198;-77
2022/05/16 18:13:30;;;;;;;12.82;11.07;;;19.90;99.90;;;;;;5035039;28;20234;-79
2022/05/16 18:16:00;;;;;;;12.05;10.73;;;20.10;99.90;;;;;;5031545;28;20222;-79
2022/05/16 18:18:28;;;;;;;12.55;10.85;;;20.10;99.90;;;;;;5038469;28;20211;-79
2022/05/16 18:20:57;;;;;;;11.25;10.07;;;20.10;99.90;;;;;;5033841;28;20230;-79
2022/05/16 18:23:33;;;;;;;11.40;10.20;;;20.20;99.90;;;;;;5030712;28;20188;-79
2022/05/16 18:26:00;;;;;;;11.95;10.85;;;20.20;99.90;;;;;;5032302;28;20691;-79
2022/05/16 18:28:28;;;;;;;12.88;11.57;;;20.20;99.90;;;;;;5035950;28;20214;-79
2022/05/16 18:30:59;;;;;;;12.65;11.35;;;20.10;99.90;;;;;;5036701;28;20229;-79
2022/05/16 18:33:33;;;;;;;13.00;11.77;;;20.10;99.90;;;;;;5030443;28;20699;-79
2022/05/16 18:36:03;;;;;;;14.23;11.98;;;20.10;99.90;;;;;;5037350;28;20203;-79
2022/05/16 18:38:32;;;;;;;13.15;11.93;;;20.10;99.90;;;;;;5036387;28;20214;-80
2022/05/16 18:41:01;;;;;;;12.80;11.48;;;20.00;99.90;;;;;;5038829;28;20218;-80
2022/05/16 18:52:01;;;;;;;12.60;11.30;;;20.20;99.90;;;;;;5034991;28;20199;-79
2022/05/16 18:54:31;;;;;;;10.32;8.18;;;20.20;99.90;;;;;;5031672;28;20594;-79
2022/05/16 18:57:00;;;;;;;12.88;11.57;;;20.30;99.90;;;;;;5025424;28;21016;-78
2022/05/16 18:59:28;;;;;;;10.23;9.20;;;20.50;99.90;;;;;;5029858;28;20203;-78
2022/05/16 19:01:58;;;;;;;12.43;9.25;;;20.50;99.90;;;;;;5029252;28;20850;-79
2022/05/16 19:04:30;;;;;;;10.77;8.95;;;20.50;99.90;;;;;;5034145;28;21255;-79
2022/05/16 19:07:17;;;;;;;13.18;10.27;;;20.50;99.90;;;;;;5034856;28;20206;-79
2022/05/16 19:09:48;;;;;;;13.25;11.88;;;20.30;99.90;;;;;;5023570;28;20215;-80
2022/05/16 19:12:15;;;;;;;10.60;9.52;;;19.90;99.90;;;;;;5034959;28;20689;-80
2022/05/16 19:14:45;;;;;;;11.15;9.95;;;19.90;99.90;;;;;;5029964;28;20219;-80
2022/05/16 19:17:20;;;;;;;8.95;8.18;;;19.70;99.90;;;;;;5026676;28;20664;-80
2022/05/16 19:19:47;;;;;;;9.48;7.93;;;20.00;99.90;;;;;;5032539;28;20325;-79
2022/05/16 19:22:15;;;;;;;9.07;8.13;;;20.30;99.90;;;;;;5034123;28;20233;-79
2022/05/16 19:24:45;;;;;;;12.23;11.02;;;20.50;99.90;;;;;;5024942;28;20199;-79
2022/05/16 19:27:13;;;;;;;9.57;8.57;;;20.40;99.90;;;;;;5030731;28;20191;-79
2022/05/16 19:32:26;;;;;;;10.73;9.55;;;20.30;99.90;;;;;;5030689;28;20194;-79
2022/05/16 19:34:55;;;;;;;13.25;11.77;;;20.30;99.90;;;;;;5030923;28;20695;-79
2022/05/16 19:37:24;;;;;;;12.68;11.38;;;20.20;99.90;;;;;;5028825;28;20225;-79
2022/05/16 19:39:51;;;;;;;14.18;12.73;;;20.00;99.90;;;;;;5029919;28;20234;-79
2022/05/16 19:42:28;;;;;;;10.93;9.82;;;20.10;99.90;;;;;;5028937;28;20207;-79
2022/05/16 19:45:09;;;;;;;13.23;12.02;;;20.00;99.90;;;;;;5031445;28;20202;-79
2022/05/16 19:47:36;;;;;;;12.40;11.18;;;19.70;99.90;;;;;;5030760;28;20194;-79
2022/05/16 19:50:04;;;;;;;13.75;11.00;;;19.60;99.90;;;;;;5031616;28;20235;-79
2022/05/16 19:52:33;;;;;;;11.70;10.73;;;19.70;99.90;;;;;;5029348;28;20191;-79
2022/05/16 19:55:01;;;;;;;8.52;7.72;;;19.60;99.90;;;;;;5034387;28;20214;-80
2022/05/16 19:57:32;;;;;;;12.30;11.23;;;19.60;99.90;;;;;;5032949;28;20227;-80
2022/05/16 20:00:00;;;;;;;9.35;8.30;;;19.60;99.90;;;;;;5030896;28;20226;-80
2022/05/16 20:02:29;;;;;;;11.88;10.77;;;19.80;99.90;;;;;;5028100;28;20199;-79
2022/05/16 20:04:59;;;;;;;12.32;11.15;;;19.70;99.90;;;;;;5032032;28;20290;-80
2022/05/16 20:07:26;;;;;;;12.77;11.57;;;19.40;99.90;;;;;;5027978;28;20598;-80
2022/05/16 20:09:56;;;;;;;10.43;9.43;;;19.40;99.90;;;;;;5019338;28;20227;-80
2022/05/16 20:12:24;;;;;;;11.35;10.25;;;19.10;99.90;;;;;;5029339;28;20207;-80
2022/05/16 20:14:53;;;;;;;13.15;11.95;;;19.00;99.90;;;;;;5024290;28;20234;-80
2022/05/16 20:17:22;;;;;;;15.60;14.10;;;18.90;99.90;;;;;;5022916;28;20568;-80
2022/05/16 20:19:49;;;;;;;13.18;11.90;;;18.90;99.90;;;;;;5034381;28;20231;-81
2022/05/16 20:27:51;;;;;;;12.90;11.73;;;18.60;99.90;;;;;;5029357;28;20566;-80
2022/05/16 20:30:20;;;;;;;11.13;10.10;;;18.60;99.90;;;;;;5024856;28;20230;-79
2022/05/16 20:32:48;;;;;;;11.10;10.10;;;18.70;99.90;;;;;;5025590;28;20740;-79
2022/05/16 20:35:22;;;;;;;12.43;11.23;;;18.70;99.90;;;;;;5021020;28;20699;-80
2022/05/16 20:38:08;;;;;;;15.25;13.90;;;18.70;99.90;;;;;;5029965;28;20221;-80
2022/05/16 20:40:39;;;;;;;15.65;14.15;;;18.60;99.90;;;;;;5025975;28;20222;-80
2022/05/16 20:43:10;;;;;;;16.08;14.38;;;18.80;99.90;;;;;;5016033;28;20203;-80
2022/05/16 20:45:41;;;;;;;15.88;14.43;;;18.80;99.90;;;;;;5025517;28;20207;-80
2022/05/16 20:48:13;;;;;;;13.40;12.30;;;18.70;99.90;;;;;;5029369;28;20199;-80
2022/05/16 20:50:44;;;;;;;14.63;13.02;;;18.50;99.90;;;;;;5024281;28;20222;-80
2022/05/16 20:53:12;;;;;;;16.00;14.50;;;18.40;99.90;;;;;;5022883;28;20191;-80
2022/05/16 20:55:42;;;;;;;18.23;16.63;;;18.50;99.90;;;;;;5026228;28;20214;-80
2022/05/16 20:58:10;;;;;;;24.52;22.23;;;18.40;99.90;;;;;;5027519;28;20206;-80
2022/05/16 21:00:48;;;;;;;21.30;19.13;;;18.40;99.90;;;;;;5022898;28;20227;-80
2022/05/16 21:03:17;;;;;;;20.60;18.60;;;18.40;99.90;;;;;;5021537;28;20200;-80
2022/05/16 21:05:45;;;;;;;21.60;19.45;;;18.20;99.90;;;;;;5025842;28;20221;-80
2022/05/16 21:08:13;;;;;;;20.85;18.85;;;18.20;99.90;;;;;;5028824;28;20207;-80
2022/05/16 21:10:42;;;;;;;18.67;16.98;;;18.30;99.90;;;;;;5024628;28;20219;-80
2022/05/16 21:13:12;;;;;;;19.23;17.35;;;18.20;99.90;;;;;;5020690;28;20203;-80
2022/05/16 21:15:41;;;;;;;22.48;20.17;;;18.30;99.90;;;;;;5032180;28;20214;-80
2022/05/16 21:18:13;;;;;;;22.02;19.88;;;18.30;99.90;;;;;;5027937;28;20684;-80
2022/05/16 21:20:42;;;;;;;24.73;22.33;;;17.90;99.90;;;;;;5041258;28;20249;-80
2022/05/16 21:23:13;;;;;;;23.52;21.27;;;17.80;99.90;;;;;;5024253;28;20207;-79
2022/05/16 21:25:46;;;;;;;21.52;19.23;;;17.80;99.90;;;;;;5021063;28;20204;-80
2022/05/16 21:28:14;;;;;;;21.50;19.52;;;17.70;99.90;;;;;;5020784;28;20207;-81
2022/05/16 21:30:41;;;;;;;21.20;19.25;;;17.70;99.90;;;;;;5023812;28;20227;-80
2022/05/16 21:33:10;;;;;;;27.65;21.38;;;17.60;99.90;;;;;;5025040;28;20202;-80
2022/05/16 21:35:37;;;;;;;23.63;21.33;;;17.40;99.90;;;;;;5023505;28;20221;-81
2022/05/16 21:38:05;;;;;;;21.85;19.58;;;17.60;99.90;;;;;;5024056;28;20206;-80
2022/05/16 21:40:32;;;;;;;22.25;20.15;;;17.60;99.90;;;;;;5024927;28;20215;-80
2022/05/16 21:43:03;;;;;;;20.75;18.90;;;17.60;99.90;;;;;;5026938;28;20198;-80
2022/05/16 21:45:32;;;;;;;24.90;22.40;;;17.60;99.90;;;;;;5020450;28;20661;-80
2022/05/16 21:48:03;;;;;;;19.75;17.85;;;17.70;99.90;;;;;;5020026;28;20202;-80
2022/05/16 21:50:34;;;;;;;24.02;21.38;;;17.60;99.90;;;;;;5020660;28;20223;-80
2022/05/16 21:53:02;;;;;;;20.42;18.55;;;17.80;99.90;;;;;;5020634;28;20199;-80
2022/05/16 21:55:29;;;;;;;23.15;20.83;;;17.60;99.90;;;;;;5026499;28;20238;-81
2022/05/16 21:57:57;;;;;;;23.20;20.75;;;17.60;99.90;;;;;;5023629;28;20695;-80
2022/05/16 22:00:32;;;;;;;23.13;20.77;;;17.40;99.90;;;;;;5022508;28;20224;-81
2022/05/16 22:03:01;;;;;;;26.08;23.58;;;17.20;99.90;;;;;;5022706;28;20204;-83
2022/05/16 22:05:39;;;;;;;26.67;23.92;;;17.30;99.90;;;;;;5028153;28;20199;-81
2022/05/16 22:08:10;;;;;;;25.58;23.00;;;17.30;99.90;;;;;;5041644;28;20198;-81
2022/05/16 22:10:44;;;;;;;23.13;20.65;;;17.20;99.90;;;;;;5018571;28;20227;-81
2022/05/16 22:13:19;;;;;;;23.42;21.33;;;17.00;99.90;;;;;;5026167;28;20226;-81
2022/05/16 22:15:47;;;;;;;25.15;20.38;;;16.90;99.90;;;;;;5021758;28;20215;-81
2022/05/16 22:18:15;;;;;;;22.35;20.35;;;16.70;99.90;;;;;;5027539;28;20234;-81
2022/05/16 22:20:43;;;;;;;24.70;22.30;;;16.80;99.90;;;;;;5021347;28;20238;-81
2022/05/16 22:23:11;;;;;;;25.55;23.15;;;16.80;99.90;;;;;;5027007;28;20199;-81
2022/05/16 22:25:39;;;;;;;22.05;19.95;;;16.80;99.90;;;;;;5020902;28;20192;-81
2022/05/16 22:28:07;;;;;;;22.17;20.08;;;16.90;99.90;;;;;;5030059;28;20210;-80
2022/05/16 22:30:36;;;;;;;20.67;18.75;;;17.00;99.90;;;;;;5030580;28;20218;-81
2022/05/16 22:33:04;;;;;;;20.35;18.45;;;17.00;99.90;;;;;;5033049;28;20187;-81
2022/05/16 22:35:32;;;;;;;21.83;19.77;;;17.00;99.90;;;;;;5032487;28;20226;-81
2022/05/16 22:38:00;;;;;;;24.77;22.35;;;17.00;99.90;;;;;;5028359;28;20199;-81
2022/05/16 22:40:30;;;;;;;23.92;21.65;;;17.10;99.90;;;;;;5021664;28;20226;-81
2022/05/16 22:42:58;;;;;;;22.42;20.30;;;17.20;99.90;;;;;;5031117;28;20199;-80
2022/05/16 22:45:29;;;;;;;22.40;20.33;;;17.10;99.90;;;;;;5027412;28;20206;-80
2022/05/16 22:47:56;;;;;;;20.10;18.27;;;17.00;99.90;;;;;;5032716;28;22014;-80
2022/05/16 22:50:25;;;;;;;21.98;19.85;;;16.90;99.90;;;;;;5029360;28;20219;-81
2022/05/16 22:53:26;;;;;;;22.38;20.27;;;16.90;99.90;;;;;;5024797;28;20215;-80
2022/05/16 22:55:56;;;;;;;23.15;20.95;;;16.90;99.90;;;;;;5031349;28;20214;-81
2022/05/16 22:58:25;;;;;;;22.52;20.40;;;17.20;99.90;;;;;;5032551;28;20661;-81
2022/05/16 23:00:53;;;;;;;21.55;19.55;;;17.20;99.90;;;;;;5030911;28;20696;-81
2022/05/16 23:03:32;;;;;;;19.50;17.70;;;17.30;99.90;;;;;;5030235;28;20417;-81
2022/05/16 23:06:04;;;;;;;22.55;20.45;;;17.10;99.90;;;;;;5026638;28;20198;-81
2022/05/16 23:08:34;;;;;;;21.40;19.48;;;17.00;99.90;;;;;;5036313;22;20227;-80
2022/05/16 23:11:02;;;;;;;25.40;22.95;;;17.00;99.90;;;;;;5007227;28;20669;-79
2022/05/16 23:13:31;;;;;;;26.02;23.42;;;17.00;99.90;;;;;;5014865;28;20208;-80